sensor_id;sensor_type;location;lat;lon;timestamp;P1;durP1;ratioP1;P2;durP2;ratioP2
59263;SDS011;45030;42.720;23.344;2022-10-30T00:00:49;37.00;;;21.88;;
59263;SDS011;45030;42.720;23.344;2022-10-30T00:03:15;34.03;;;20.75;;
59263;SDS011;45030;42.720;23.344;2022-10-30T00:05:44;34.53;;;20.08;;
59263;SDS011;45030;42.720;23.344;2022-10-30T00:08:12;32.67;;;19.15;;
59263;SDS011;45030;42.720;23.344;2022-10-30T00:10:38;37.13;;;22.95;;
59263;SDS011;45030;42.720;23.344;2022-10-30T00:13:04;37.03;;;21.88;;
59263;SDS011;45030;42.720;23.344;2022-10-30T00:15:29;38.65;;;23.90;;
59263;SDS011;45030;42.720;23.344;2022-10-30T00:17:54;42.97;;;26.08;;
59263;SDS011;45030;42.720;23.344;2022-10-30T00:20:19;48.00;;;30.00;;
59263;SDS011;45030;42.720;23.344;2022-10-30T00:22:45;53.33;;;31.30;;
59263;SDS011;45030;42.720;23.344;2022-10-30T00:25:10;52.97;;;31.30;;
59263;SDS011;45030;42.720;23.344;2022-10-30T00:27:35;55.67;;;30.17;;
59263;SDS011;45030;42.720;23.344;2022-10-30T00:30:00;54.38;;;29.50;;
59263;SDS011;45030;42.720;23.344;2022-10-30T00:32:26;49.22;;;29.42;;
59263;SDS011;45030;42.720;23.344;2022-10-30T00:34:51;48.67;;;27.85;;
59263;SDS011;45030;42.720;23.344;2022-10-30T00:37:17;47.60;;;27.42;;
59263;SDS011;45030;42.720;23.344;2022-10-30T00:39:42;54.55;;;28.25;;
59263;SDS011;45030;42.720;23.344;2022-10-30T00:42:11;53.10;;;27.42;;
59263;SDS011;45030;42.720;23.344;2022-10-30T00:52:07;33.72;;;19.13;;
59263;SDS011;45030;42.720;23.344;2022-10-30T00:54:33;32.28;;;20.85;;
59263;SDS011;45030;42.720;23.344;2022-10-30T00:56:59;33.25;;;20.02;;
59263;SDS011;45030;42.720;23.344;2022-10-30T00:59:27;38.35;;;21.10;;
59263;SDS011;45030;42.720;23.344;2022-10-30T01:01:53;37.95;;;21.75;;
59263;SDS011;45030;42.720;23.344;2022-10-30T01:04:19;38.33;;;22.70;;
59263;SDS011;45030;42.720;23.344;2022-10-30T01:06:45;36.10;;;21.38;;
59263;SDS011;45030;42.720;23.344;2022-10-30T01:09:12;35.28;;;21.17;;
59263;SDS011;45030;42.720;23.344;2022-10-30T01:11:37;34.10;;;21.00;;
59263;SDS011;45030;42.720;23.344;2022-10-30T01:14:03;34.90;;;21.00;;
59263;SDS011;45030;42.720;23.344;2022-10-30T01:21:39;39.22;;;23.58;;
59263;SDS011;45030;42.720;23.344;2022-10-30T01:32:04;36.65;;;22.65;;
59263;SDS011;45030;42.720;23.344;2022-10-30T01:37:02;36.03;;;22.52;;
59263;SDS011;45030;42.720;23.344;2022-10-30T01:39:33;37.17;;;22.75;;
59263;SDS011;45030;42.720;23.344;2022-10-30T01:41:59;37.95;;;22.45;;
59263;SDS011;45030;42.720;23.344;2022-10-30T01:44:31;30.08;;;19.48;;
59263;SDS011;45030;42.720;23.344;2022-10-30T01:57:33;32.47;;;19.92;;
59263;SDS011;45030;42.720;23.344;2022-10-30T02:00:03;33.92;;;19.90;;
59263;SDS011;45030;42.720;23.344;2022-10-30T02:02:28;33.35;;;21.42;;
59263;SDS011;45030;42.720;23.344;2022-10-30T02:04:54;31.38;;;20.70;;
59263;SDS011;45030;42.720;23.344;2022-10-30T02:07:20;35.13;;;21.30;;
59263;SDS011;45030;42.720;23.344;2022-10-30T02:09:45;36.58;;;20.70;;
59263;SDS011;45030;42.720;23.344;2022-10-30T02:12:10;33.53;;;21.58;;
59263;SDS011;45030;42.720;23.344;2022-10-30T02:14:40;34.35;;;21.27;;
59263;SDS011;45030;42.720;23.344;2022-10-30T02:17:06;37.25;;;21.85;;
59263;SDS011;45030;42.720;23.344;2022-10-30T02:19:32;32.65;;;20.98;;
59263;SDS011;45030;42.720;23.344;2022-10-30T02:21:57;30.73;;;20.98;;
59263;SDS011;45030;42.720;23.344;2022-10-30T02:24:22;35.58;;;21.55;;
59263;SDS011;45030;42.720;23.344;2022-10-30T02:26:48;37.78;;;22.48;;
59263;SDS011;45030;42.720;23.344;2022-10-30T02:29:13;34.20;;;21.10;;
59263;SDS011;45030;42.720;23.344;2022-10-30T02:31:38;34.00;;;21.00;;
59263;SDS011;45030;42.720;23.344;2022-10-30T02:34:04;34.78;;;22.10;;
59263;SDS011;45030;42.720;23.344;2022-10-30T02:36:29;35.33;;;20.42;;
59263;SDS011;45030;42.720;23.344;2022-10-30T02:38:54;28.40;;;18.95;;
59263;SDS011;45030;42.720;23.344;2022-10-30T02:41:22;33.85;;;21.10;;
59263;SDS011;45030;42.720;23.344;2022-10-30T02:43:49;37.65;;;21.13;;
59263;SDS011;45030;42.720;23.344;2022-10-30T02:46:14;33.08;;;19.63;;
59263;SDS011;45030;42.720;23.344;2022-10-30T02:48:39;40.50;;;22.85;;
59263;SDS011;45030;42.720;23.344;2022-10-30T02:51:04;50.50;;;26.25;;
59263;SDS011;45030;42.720;23.344;2022-10-30T02:53:30;49.38;;;25.38;;
59263;SDS011;45030;42.720;23.344;2022-10-30T02:55:55;51.42;;;29.67;;
59263;SDS011;45030;42.720;23.344;2022-10-30T02:58:20;48.38;;;28.70;;
59263;SDS011;45030;42.720;23.344;2022-10-30T03:00:46;42.60;;;25.60;;
59263;SDS011;45030;42.720;23.344;2022-10-30T03:03:11;41.70;;;24.58;;
59263;SDS011;45030;42.720;23.344;2022-10-30T03:05:36;35.38;;;21.38;;
59263;SDS011;45030;42.720;23.344;2022-10-30T03:08:01;37.25;;;22.10;;
59263;SDS011;45030;42.720;23.344;2022-10-30T03:10:27;38.55;;;22.67;;
59263;SDS011;45030;42.720;23.344;2022-10-30T03:12:52;32.95;;;20.50;;
59263;SDS011;45030;42.720;23.344;2022-10-30T03:15:17;30.67;;;20.25;;
59263;SDS011;45030;42.720;23.344;2022-10-30T03:17:42;29.73;;;18.80;;
59263;SDS011;45030;42.720;23.344;2022-10-30T03:20:08;29.45;;;18.73;;
59263;SDS011;45030;42.720;23.344;2022-10-30T03:22:33;32.75;;;18.45;;
59263;SDS011;45030;42.720;23.344;2022-10-30T03:24:59;32.97;;;19.60;;
59263;SDS011;45030;42.720;23.344;2022-10-30T03:27:24;32.88;;;19.58;;
59263;SDS011;45030;42.720;23.344;2022-10-30T03:29:49;31.88;;;19.85;;
59263;SDS011;45030;42.720;23.344;2022-10-30T03:32:14;34.22;;;20.98;;
59263;SDS011;45030;42.720;23.344;2022-10-30T03:34:39;26.92;;;17.67;;
59263;SDS011;45030;42.720;23.344;2022-10-30T03:37:05;33.88;;;22.88;;
59263;SDS011;45030;42.720;23.344;2022-10-30T03:39:30;31.85;;;19.13;;
59263;SDS011;45030;42.720;23.344;2022-10-30T03:41:55;31.60;;;18.08;;
59263;SDS011;45030;42.720;23.344;2022-10-30T03:44:21;30.17;;;17.52;;
59263;SDS011;45030;42.720;23.344;2022-10-30T03:46:46;30.33;;;19.10;;
59263;SDS011;45030;42.720;23.344;2022-10-30T03:49:11;36.55;;;21.38;;
59263;SDS011;45030;42.720;23.344;2022-10-30T03:51:36;36.28;;;23.42;;
59263;SDS011;45030;42.720;23.344;2022-10-30T03:54:02;35.38;;;24.38;;
59263;SDS011;45030;42.720;23.344;2022-10-30T03:56:27;41.08;;;28.58;;
59263;SDS011;45030;42.720;23.344;2022-10-30T03:58:52;37.70;;;27.23;;
59263;SDS011;45030;42.720;23.344;2022-10-30T04:01:17;42.28;;;25.80;;
59263;SDS011;45030;42.720;23.344;2022-10-30T04:03:43;167.68;;;63.38;;
59263;SDS011;45030;42.720;23.344;2022-10-30T04:06:08;91.00;;;41.13;;
59263;SDS011;45030;42.720;23.344;2022-10-30T04:08:33;46.85;;;25.02;;
59263;SDS011;45030;42.720;23.344;2022-10-30T04:10:58;35.70;;;23.33;;
59263;SDS011;45030;42.720;23.344;2022-10-30T04:13:24;62.40;;;30.95;;
59263;SDS011;45030;42.720;23.344;2022-10-30T04:15:49;105.20;;;42.97;;
59263;SDS011;45030;42.720;23.344;2022-10-30T04:18:15;89.95;;;36.92;;
59263;SDS011;45030;42.720;23.344;2022-10-30T04:20:40;85.18;;;36.70;;
59263;SDS011;45030;42.720;23.344;2022-10-30T04:23:06;86.00;;;34.92;;
59263;SDS011;45030;42.720;23.344;2022-10-30T04:25:32;77.38;;;31.52;;
59263;SDS011;45030;42.720;23.344;2022-10-30T04:27:57;61.92;;;27.63;;
59263;SDS011;45030;42.720;23.344;2022-10-30T04:30:23;55.67;;;27.50;;
59263;SDS011;45030;42.720;23.344;2022-10-30T04:32:51;75.50;;;43.42;;
59263;SDS011;45030;42.720;23.344;2022-10-30T04:35:18;68.38;;;41.53;;
59263;SDS011;45030;42.720;23.344;2022-10-30T04:37:50;75.97;;;46.08;;
59263;SDS011;45030;42.720;23.344;2022-10-30T04:40:16;75.38;;;44.05;;
59263;SDS011;45030;42.720;23.344;2022-10-30T04:42:41;69.55;;;40.17;;
59263;SDS011;45030;42.720;23.344;2022-10-30T04:45:06;132.90;;;75.60;;
59263;SDS011;45030;42.720;23.344;2022-10-30T04:47:32;154.55;;;88.72;;
59263;SDS011;45030;42.720;23.344;2022-10-30T04:49:57;132.27;;;75.03;;
59263;SDS011;45030;42.720;23.344;2022-10-30T04:52:22;120.97;;;64.85;;
59263;SDS011;45030;42.720;23.344;2022-10-30T04:54:47;135.10;;;75.97;;
59263;SDS011;45030;42.720;23.344;2022-10-30T04:57:12;212.45;;;116.25;;
59263;SDS011;45030;42.720;23.344;2022-10-30T04:59:38;191.88;;;105.75;;
59263;SDS011;45030;42.720;23.344;2022-10-30T05:02:03;220.50;;;120.68;;
59263;SDS011;45030;42.720;23.344;2022-10-30T05:04:28;181.95;;;99.63;;
59263;SDS011;45030;42.720;23.344;2022-10-30T05:06:53;201.15;;;109.40;;
59263;SDS011;45030;42.720;23.344;2022-10-30T05:09:19;246.27;;;128.98;;
59263;SDS011;45030;42.720;23.344;2022-10-30T05:11:44;289.40;;;154.10;;
59263;SDS011;45030;42.720;23.344;2022-10-30T05:14:09;316.52;;;172.15;;
59263;SDS011;45030;42.720;23.344;2022-10-30T05:16:34;284.27;;;149.20;;
59263;SDS011;45030;42.720;23.344;2022-10-30T05:18:59;243.93;;;129.73;;
59263;SDS011;45030;42.720;23.344;2022-10-30T05:21:25;201.10;;;106.78;;
59263;SDS011;45030;42.720;23.344;2022-10-30T05:23:50;161.88;;;86.20;;
59263;SDS011;45030;42.720;23.344;2022-10-30T05:26:15;116.13;;;71.68;;
59263;SDS011;45030;42.720;23.344;2022-10-30T05:28:40;116.25;;;66.05;;
59263;SDS011;45030;42.720;23.344;2022-10-30T05:31:06;125.43;;;75.30;;
59263;SDS011;45030;42.720;23.344;2022-10-30T05:33:31;127.65;;;72.00;;
59263;SDS011;45030;42.720;23.344;2022-10-30T05:35:57;121.97;;;76.32;;
59263;SDS011;45030;42.720;23.344;2022-10-30T05:38:22;113.20;;;67.25;;
59263;SDS011;45030;42.720;23.344;2022-10-30T05:40:47;105.15;;;63.72;;
59263;SDS011;45030;42.720;23.344;2022-10-30T05:43:12;106.25;;;60.25;;
59263;SDS011;45030;42.720;23.344;2022-10-30T05:45:37;62.15;;;38.45;;
59263;SDS011;45030;42.720;23.344;2022-10-30T05:48:04;50.60;;;28.00;;
59263;SDS011;45030;42.720;23.344;2022-10-30T05:50:30;66.15;;;40.25;;
59263;SDS011;45030;42.720;23.344;2022-10-30T05:52:56;71.15;;;43.78;;
59263;SDS011;45030;42.720;23.344;2022-10-30T05:55:21;61.00;;;35.55;;
59263;SDS011;45030;42.720;23.344;2022-10-30T05:57:46;50.15;;;32.85;;
59263;SDS011;45030;42.720;23.344;2022-10-30T06:00:12;44.38;;;28.98;;
59263;SDS011;45030;42.720;23.344;2022-10-30T06:02:37;44.15;;;29.35;;
59263;SDS011;45030;42.720;23.344;2022-10-30T06:05:03;42.15;;;26.48;;
59263;SDS011;45030;42.720;23.344;2022-10-30T06:07:28;39.38;;;25.20;;
59263;SDS011;45030;42.720;23.344;2022-10-30T06:09:53;46.67;;;26.95;;
59263;SDS011;45030;42.720;23.344;2022-10-30T06:12:18;43.40;;;24.60;;
59263;SDS011;45030;42.720;23.344;2022-10-30T06:14:44;33.75;;;22.55;;
59263;SDS011;45030;42.720;23.344;2022-10-30T06:17:09;29.45;;;20.10;;
59263;SDS011;45030;42.720;23.344;2022-10-30T06:19:34;27.30;;;19.70;;
59263;SDS011;45030;42.720;23.344;2022-10-30T06:21:59;32.15;;;22.90;;
59263;SDS011;45030;42.720;23.344;2022-10-30T06:24:24;31.23;;;22.58;;
59263;SDS011;45030;42.720;23.344;2022-10-30T06:26:50;32.47;;;21.65;;
59263;SDS011;45030;42.720;23.344;2022-10-30T06:29:15;28.00;;;18.63;;
59263;SDS011;45030;42.720;23.344;2022-10-30T06:31:40;25.60;;;15.38;;
59263;SDS011;45030;42.720;23.344;2022-10-30T06:34:05;26.90;;;15.75;;
59263;SDS011;45030;42.720;23.344;2022-10-30T06:36:31;23.85;;;15.10;;
59263;SDS011;45030;42.720;23.344;2022-10-30T06:38:56;21.63;;;15.32;;
59263;SDS011;45030;42.720;23.344;2022-10-30T06:41:21;21.52;;;14.18;;
59263;SDS011;45030;42.720;23.344;2022-10-30T06:43:47;19.60;;;13.63;;
59263;SDS011;45030;42.720;23.344;2022-10-30T06:46:12;22.45;;;12.82;;
59263;SDS011;45030;42.720;23.344;2022-10-30T06:48:37;22.10;;;12.13;;
59263;SDS011;45030;42.720;23.344;2022-10-30T06:51:02;23.77;;;15.32;;
59263;SDS011;45030;42.720;23.344;2022-10-30T06:53:28;53.83;;;26.35;;
59263;SDS011;45030;42.720;23.344;2022-10-30T06:55:56;32.25;;;19.33;;
59263;SDS011;45030;42.720;23.344;2022-10-30T06:58:22;29.10;;;17.40;;
59263;SDS011;45030;42.720;23.344;2022-10-30T07:00:48;25.92;;;17.52;;
59263;SDS011;45030;42.720;23.344;2022-10-30T07:03:13;25.40;;;14.38;;
59263;SDS011;45030;42.720;23.344;2022-10-30T07:05:38;22.75;;;14.25;;
59263;SDS011;45030;42.720;23.344;2022-10-30T07:08:03;23.33;;;14.77;;
59263;SDS011;45030;42.720;23.344;2022-10-30T07:10:29;19.60;;;13.13;;
59263;SDS011;45030;42.720;23.344;2022-10-30T07:12:54;22.20;;;13.50;;
59263;SDS011;45030;42.720;23.344;2022-10-30T07:15:20;18.40;;;12.93;;
59263;SDS011;45030;42.720;23.344;2022-10-30T07:17:55;19.08;;;12.93;;
59263;SDS011;45030;42.720;23.344;2022-10-30T07:20:21;24.23;;;15.68;;
59263;SDS011;45030;42.720;23.344;2022-10-30T07:22:46;27.15;;;17.67;;
59263;SDS011;45030;42.720;23.344;2022-10-30T07:25:12;28.95;;;17.75;;
59263;SDS011;45030;42.720;23.344;2022-10-30T07:27:41;28.17;;;18.10;;
59263;SDS011;45030;42.720;23.344;2022-10-30T07:30:06;27.63;;;19.15;;
59263;SDS011;45030;42.720;23.344;2022-10-30T07:32:32;26.40;;;20.17;;
59263;SDS011;45030;42.720;23.344;2022-10-30T07:34:57;27.20;;;18.08;;
59263;SDS011;45030;42.720;23.344;2022-10-30T07:37:22;27.52;;;18.65;;
59263;SDS011;45030;42.720;23.344;2022-10-30T07:39:47;23.25;;;17.65;;
59263;SDS011;45030;42.720;23.344;2022-10-30T07:42:13;24.75;;;16.17;;
59263;SDS011;45030;42.720;23.344;2022-10-30T07:44:38;26.55;;;17.45;;
59263;SDS011;45030;42.720;23.344;2022-10-30T07:47:03;22.27;;;16.35;;
59263;SDS011;45030;42.720;23.344;2022-10-30T07:49:28;24.75;;;14.98;;
59263;SDS011;45030;42.720;23.344;2022-10-30T07:51:53;20.25;;;15.63;;
59263;SDS011;45030;42.720;23.344;2022-10-30T07:54:19;22.98;;;15.48;;
59263;SDS011;45030;42.720;23.344;2022-10-30T07:56:44;21.50;;;15.18;;
59263;SDS011;45030;42.720;23.344;2022-10-30T07:59:09;19.45;;;13.75;;
59263;SDS011;45030;42.720;23.344;2022-10-30T08:01:34;21.05;;;13.25;;
59263;SDS011;45030;42.720;23.344;2022-10-30T08:04:00;18.73;;;13.75;;
59263;SDS011;45030;42.720;23.344;2022-10-30T08:06:25;19.77;;;14.20;;
59263;SDS011;45030;42.720;23.344;2022-10-30T08:08:50;19.25;;;12.82;;
59263;SDS011;45030;42.720;23.344;2022-10-30T08:11:15;16.77;;;13.32;;
59263;SDS011;45030;42.720;23.344;2022-10-30T08:13:41;17.92;;;12.40;;
59263;SDS011;45030;42.720;23.344;2022-10-30T08:16:06;19.20;;;13.88;;
59263;SDS011;45030;42.720;23.344;2022-10-30T08:18:31;19.00;;;14.45;;
59263;SDS011;45030;42.720;23.344;2022-10-30T08:20:56;17.23;;;13.10;;
59263;SDS011;45030;42.720;23.344;2022-10-30T08:23:22;16.93;;;14.57;;
59263;SDS011;45030;42.720;23.344;2022-10-30T08:25:47;23.43;;;15.63;;
59263;SDS011;45030;42.720;23.344;2022-10-30T08:28:12;17.23;;;12.95;;
59263;SDS011;45030;42.720;23.344;2022-10-30T08:30:38;20.35;;;13.35;;
59263;SDS011;45030;42.720;23.344;2022-10-30T08:33:04;20.38;;;14.15;;
59263;SDS011;45030;42.720;23.344;2022-10-30T08:35:30;22.02;;;16.02;;
59263;SDS011;45030;42.720;23.344;2022-10-30T08:37:56;21.98;;;15.90;;
59263;SDS011;45030;42.720;23.344;2022-10-30T08:40:22;20.65;;;15.10;;
59263;SDS011;45030;42.720;23.344;2022-10-30T08:42:51;19.35;;;12.45;;
59263;SDS011;45030;42.720;23.344;2022-10-30T08:45:17;17.75;;;12.75;;
59263;SDS011;45030;42.720;23.344;2022-10-30T08:47:42;15.55;;;13.05;;
59263;SDS011;45030;42.720;23.344;2022-10-30T08:50:07;14.48;;;11.38;;
59263;SDS011;45030;42.720;23.344;2022-10-30T08:52:32;19.25;;;12.90;;
59263;SDS011;45030;42.720;23.344;2022-10-30T08:54:58;16.37;;;10.53;;
59263;SDS011;45030;42.720;23.344;2022-10-30T08:57:23;12.70;;;8.40;;
59263;SDS011;45030;42.720;23.344;2022-10-30T08:59:48;15.97;;;9.63;;
59263;SDS011;45030;42.720;23.344;2022-10-30T09:02:13;11.07;;;9.07;;
59263;SDS011;45030;42.720;23.344;2022-10-30T09:04:39;14.25;;;10.25;;
59263;SDS011;45030;42.720;23.344;2022-10-30T09:07:04;13.48;;;10.82;;
59263;SDS011;45030;42.720;23.344;2022-10-30T09:09:29;13.73;;;10.07;;
59263;SDS011;45030;42.720;23.344;2022-10-30T09:11:54;20.98;;;11.60;;
59263;SDS011;45030;42.720;23.344;2022-10-30T09:14:19;15.15;;;10.57;;
59263;SDS011;45030;42.720;23.344;2022-10-30T09:16:45;11.10;;;8.97;;
59263;SDS011;45030;42.720;23.344;2022-10-30T09:19:10;12.57;;;10.40;;
59263;SDS011;45030;42.720;23.344;2022-10-30T09:21:35;12.23;;;8.65;;
59263;SDS011;45030;42.720;23.344;2022-10-30T09:24:00;13.77;;;7.77;;
59263;SDS011;45030;42.720;23.344;2022-10-30T09:26:26;11.63;;;7.80;;
59263;SDS011;45030;42.720;23.344;2022-10-30T09:28:51;12.57;;;7.30;;
59263;SDS011;45030;42.720;23.344;2022-10-30T09:31:17;11.70;;;7.60;;
59263;SDS011;45030;42.720;23.344;2022-10-30T09:33:42;11.90;;;7.50;;
59263;SDS011;45030;42.720;23.344;2022-10-30T09:36:07;12.45;;;7.15;;
59263;SDS011;45030;42.720;23.344;2022-10-30T09:38:32;12.60;;;8.27;;
59263;SDS011;45030;42.720;23.344;2022-10-30T09:56:59;10.47;;;8.40;;
59263;SDS011;45030;42.720;23.344;2022-10-30T10:07:24;8.05;;;5.63;;
59263;SDS011;45030;42.720;23.344;2022-10-30T10:09:51;12.93;;;7.10;;
59263;SDS011;45030;42.720;23.344;2022-10-30T10:14:47;10.57;;;6.07;;
59263;SDS011;45030;42.720;23.344;2022-10-30T10:17:13;9.63;;;6.57;;
59263;SDS011;45030;42.720;23.344;2022-10-30T10:19:51;12.60;;;6.45;;
59263;SDS011;45030;42.720;23.344;2022-10-30T10:22:20;12.13;;;6.22;;
59263;SDS011;45030;42.720;23.344;2022-10-30T10:24:45;10.20;;;6.03;;
59263;SDS011;45030;42.720;23.344;2022-10-30T10:32:12;11.77;;;7.00;;
59263;SDS011;45030;42.720;23.344;2022-10-30T10:42:45;8.95;;;5.85;;
59263;SDS011;45030;42.720;23.344;2022-10-30T10:50:18;6.95;;;4.60;;
59263;SDS011;45030;42.720;23.344;2022-10-30T10:52:53;8.32;;;4.80;;
59263;SDS011;45030;42.720;23.344;2022-10-30T10:55:21;9.13;;;5.03;;
59263;SDS011;45030;42.720;23.344;2022-10-30T10:57:48;8.27;;;4.70;;
59263;SDS011;45030;42.720;23.344;2022-10-30T11:00:16;8.25;;;4.90;;
59263;SDS011;45030;42.720;23.344;2022-10-30T11:02:45;6.28;;;3.83;;
59263;SDS011;45030;42.720;23.344;2022-10-30T11:07:47;7.03;;;4.07;;
59263;SDS011;45030;42.720;23.344;2022-10-30T11:10:13;6.55;;;3.90;;
59263;SDS011;45030;42.720;23.344;2022-10-30T11:12:39;7.53;;;4.00;;
59263;SDS011;45030;42.720;23.344;2022-10-30T11:15:11;8.13;;;4.35;;
59263;SDS011;45030;42.720;23.344;2022-10-30T11:17:41;6.13;;;3.63;;
59263;SDS011;45030;42.720;23.344;2022-10-30T11:20:13;6.65;;;3.92;;
59263;SDS011;45030;42.720;23.344;2022-10-30T11:22:40;5.45;;;3.30;;
59263;SDS011;45030;42.720;23.344;2022-10-30T11:25:18;6.05;;;3.75;;
59263;SDS011;45030;42.720;23.344;2022-10-30T11:27:44;6.80;;;3.58;;
59263;SDS011;45030;42.720;23.344;2022-10-30T11:30:17;5.80;;;3.20;;
59263;SDS011;45030;42.720;23.344;2022-10-30T11:37:34;5.13;;;3.17;;
59263;SDS011;45030;42.720;23.344;2022-10-30T11:40:01;8.35;;;3.08;;
59263;SDS011;45030;42.720;23.344;2022-10-30T11:42:26;7.10;;;3.60;;
59263;SDS011;45030;42.720;23.344;2022-10-30T11:44:52;4.30;;;3.13;;
59263;SDS011;45030;42.720;23.344;2022-10-30T11:47:18;8.32;;;2.72;;
59263;SDS011;45030;42.720;23.344;2022-10-30T11:49:50;6.35;;;3.13;;
59263;SDS011;45030;42.720;23.344;2022-10-30T11:52:19;6.10;;;2.65;;
59263;SDS011;45030;42.720;23.344;2022-10-30T11:54:47;9.23;;;2.92;;
59263;SDS011;45030;42.720;23.344;2022-10-30T11:57:23;6.70;;;2.40;;
59263;SDS011;45030;42.720;23.344;2022-10-30T11:59:53;3.78;;;2.58;;
59263;SDS011;45030;42.720;23.344;2022-10-30T12:04:48;3.63;;;1.92;;
59263;SDS011;45030;42.720;23.344;2022-10-30T12:09:48;3.92;;;2.35;;
59263;SDS011;45030;42.720;23.344;2022-10-30T12:12:21;6.00;;;2.47;;
59263;SDS011;45030;42.720;23.344;2022-10-30T12:14:47;4.10;;;2.10;;
59263;SDS011;45030;42.720;23.344;2022-10-30T12:17:13;3.25;;;1.98;;
59263;SDS011;45030;42.720;23.344;2022-10-30T12:19:44;3.97;;;2.05;;
59263;SDS011;45030;42.720;23.344;2022-10-30T12:22:09;5.68;;;2.53;;
59263;SDS011;45030;42.720;23.344;2022-10-30T12:24:35;6.00;;;2.15;;
59263;SDS011;45030;42.720;23.344;2022-10-30T12:27:02;4.93;;;2.13;;
59263;SDS011;45030;42.720;23.344;2022-10-30T12:29:39;4.70;;;2.35;;
59263;SDS011;45030;42.720;23.344;2022-10-30T12:32:07;5.85;;;2.33;;
59263;SDS011;45030;42.720;23.344;2022-10-30T12:34:48;5.25;;;2.33;;
59263;SDS011;45030;42.720;23.344;2022-10-30T12:42:12;4.90;;;1.88;;
59263;SDS011;45030;42.720;23.344;2022-10-30T12:44:45;4.38;;;1.90;;
59263;SDS011;45030;42.720;23.344;2022-10-30T12:49:41;2.97;;;1.90;;
59263;SDS011;45030;42.720;23.344;2022-10-30T12:54:53;4.63;;;1.70;;
59263;SDS011;45030;42.720;23.344;2022-10-30T12:57:43;4.80;;;1.80;;
59263;SDS011;45030;42.720;23.344;2022-10-30T13:00:10;3.78;;;1.63;;
59263;SDS011;45030;42.720;23.344;2022-10-30T13:02:48;3.38;;;1.80;;
59263;SDS011;45030;42.720;23.344;2022-10-30T13:10:42;3.85;;;1.80;;
59263;SDS011;45030;42.720;23.344;2022-10-30T13:13:31;5.85;;;1.60;;
59263;SDS011;45030;42.720;23.344;2022-10-30T13:15:54;5.22;;;2.17;;
59263;SDS011;45030;42.720;23.344;2022-10-30T13:18:21;4.35;;;1.75;;
59263;SDS011;45030;42.720;23.344;2022-10-30T13:20:59;3.78;;;1.58;;
59263;SDS011;45030;42.720;23.344;2022-10-30T13:23:27;2.72;;;1.65;;
59263;SDS011;45030;42.720;23.344;2022-10-30T13:28:29;6.93;;;2.13;;
59263;SDS011;45030;42.720;23.344;2022-10-30T13:33:34;5.27;;;2.00;;
59263;SDS011;45030;42.720;23.344;2022-10-30T13:36:07;4.97;;;1.70;;
59263;SDS011;45030;42.720;23.344;2022-10-30T13:38:38;8.07;;;2.45;;
59263;SDS011;45030;42.720;23.344;2022-10-30T13:41:31;6.50;;;2.42;;
59263;SDS011;45030;42.720;23.344;2022-10-30T13:51:42;3.55;;;1.38;;
59263;SDS011;45030;42.720;23.344;2022-10-30T13:56:36;4.25;;;2.10;;
59263;SDS011;45030;42.720;23.344;2022-10-30T13:59:04;2.22;;;1.70;;
59263;SDS011;45030;42.720;23.344;2022-10-30T14:01:38;5.90;;;2.30;;
59263;SDS011;45030;42.720;23.344;2022-10-30T14:11:41;5.63;;;2.30;;
59263;SDS011;45030;42.720;23.344;2022-10-30T14:17:03;2.88;;;1.70;;
59263;SDS011;45030;42.720;23.344;2022-10-30T14:19:32;5.22;;;2.35;;
59263;SDS011;45030;42.720;23.344;2022-10-30T14:22:01;6.95;;;2.67;;
59263;SDS011;45030;42.720;23.344;2022-10-30T14:24:27;7.65;;;2.65;;
59263;SDS011;45030;42.720;23.344;2022-10-30T14:32:40;9.88;;;3.10;;
59263;SDS011;45030;42.720;23.344;2022-10-30T14:37:16;5.93;;;3.00;;
59263;SDS011;45030;42.720;23.344;2022-10-30T14:39:46;11.02;;;3.20;;
59263;SDS011;45030;42.720;23.344;2022-10-30T14:49:56;7.32;;;3.10;;
59263;SDS011;45030;42.720;23.344;2022-10-30T15:00:36;5.80;;;3.00;;
59263;SDS011;45030;42.720;23.344;2022-10-30T15:05:38;7.37;;;3.10;;
59263;SDS011;45030;42.720;23.344;2022-10-30T15:08:13;10.50;;;3.65;;
59263;SDS011;45030;42.720;23.344;2022-10-30T15:10:58;10.30;;;4.18;;
59263;SDS011;45030;42.720;23.344;2022-10-30T15:13:25;10.63;;;3.60;;
59263;SDS011;45030;42.720;23.344;2022-10-30T15:15:57;7.65;;;3.90;;
59263;SDS011;45030;42.720;23.344;2022-10-30T15:18:23;6.07;;;3.55;;
59263;SDS011;45030;42.720;23.344;2022-10-30T15:20:52;8.75;;;3.47;;
59263;SDS011;45030;42.720;23.344;2022-10-30T15:23:21;7.57;;;3.50;;
59263;SDS011;45030;42.720;23.344;2022-10-30T15:25:49;10.68;;;3.60;;
59263;SDS011;45030;42.720;23.344;2022-10-30T15:28:18;6.85;;;3.22;;
59263;SDS011;45030;42.720;23.344;2022-10-30T15:33:42;5.40;;;3.40;;
59263;SDS011;45030;42.720;23.344;2022-10-30T15:36:17;7.60;;;3.35;;
59263;SDS011;45030;42.720;23.344;2022-10-30T15:38:42;7.55;;;3.70;;
59263;SDS011;45030;42.720;23.344;2022-10-30T15:41:07;7.35;;;3.28;;
59263;SDS011;45030;42.720;23.344;2022-10-30T15:43:34;6.43;;;3.15;;
59263;SDS011;45030;42.720;23.344;2022-10-30T15:45:59;9.02;;;3.78;;
59263;SDS011;45030;42.720;23.344;2022-10-30T15:51:06;7.93;;;3.38;;
59263;SDS011;45030;42.720;23.344;2022-10-30T15:53:51;7.93;;;4.25;;
59263;SDS011;45030;42.720;23.344;2022-10-30T15:56:27;9.02;;;4.38;;
59263;SDS011;45030;42.720;23.344;2022-10-30T15:58:58;9.43;;;4.35;;
59263;SDS011;45030;42.720;23.344;2022-10-30T16:01:31;5.90;;;3.90;;
59263;SDS011;45030;42.720;23.344;2022-10-30T16:03:56;10.90;;;5.13;;
59263;SDS011;45030;42.720;23.344;2022-10-30T16:06:30;11.98;;;6.05;;
59263;SDS011;45030;42.720;23.344;2022-10-30T16:08:56;10.85;;;5.35;;
59263;SDS011;45030;42.720;23.344;2022-10-30T16:11:21;12.13;;;6.80;;
59263;SDS011;45030;42.720;23.344;2022-10-30T16:13:48;12.57;;;7.05;;
59263;SDS011;45030;42.720;23.344;2022-10-30T16:16:21;8.75;;;5.68;;
59263;SDS011;45030;42.720;23.344;2022-10-30T16:18:48;11.60;;;5.35;;
59263;SDS011;45030;42.720;23.344;2022-10-30T16:21:15;8.85;;;4.93;;
59263;SDS011;45030;42.720;23.344;2022-10-30T16:23:45;10.27;;;5.03;;
59263;SDS011;45030;42.720;23.344;2022-10-30T16:26:25;11.02;;;6.43;;
59263;SDS011;45030;42.720;23.344;2022-10-30T16:28:50;7.07;;;4.70;;
59263;SDS011;45030;42.720;23.344;2022-10-30T16:31:15;10.45;;;5.13;;
59263;SDS011;45030;42.720;23.344;2022-10-30T16:33:44;12.98;;;5.30;;
59263;SDS011;45030;42.720;23.344;2022-10-30T16:36:13;12.00;;;5.70;;
59263;SDS011;45030;42.720;23.344;2022-10-30T16:38:40;9.18;;;5.47;;
59263;SDS011;45030;42.720;23.344;2022-10-30T16:41:06;8.00;;;4.95;;
59263;SDS011;45030;42.720;23.344;2022-10-30T16:43:37;10.55;;;5.25;;
59263;SDS011;45030;42.720;23.344;2022-10-30T16:48:37;9.77;;;5.00;;
59263;SDS011;45030;42.720;23.344;2022-10-30T16:51:02;7.82;;;4.57;;
59263;SDS011;45030;42.720;23.344;2022-10-30T16:53:28;9.73;;;5.47;;
59263;SDS011;45030;42.720;23.344;2022-10-30T16:55:54;8.40;;;5.18;;
59263;SDS011;45030;42.720;23.344;2022-10-30T16:58:21;10.05;;;5.32;;
59263;SDS011;45030;42.720;23.344;2022-10-30T17:00:51;7.35;;;5.05;;